Time;durP1;ratioP1;P1;durP2;ratioP2;P2;SDS_P1;SDS_P2;PMS_P1;PMS_P2;Temp;Humidity;BMP_temperature;BMP_pressure;BME280_temperature;BME280_humidity;BME280_pressure;Samples;Min_cycle;Max_cycle;Signal;HPM_P1;HPM_P2
2021/07/26 00:00:15;;;;;;;;;13.00;11.33;;;;;;;;5029532;27;45930;-78
2021/07/26 00:02:40;;;;;;;;;14.25;14.25;;;;;;;;5028629;27;45468;-79
2021/07/26 00:05:06;;;;;;;;;14.00;12.75;;;;;;;;5018338;28;45469;-79
2021/07/26 00:07:31;;;;;;;;;16.75;13.25;;;;;;;;5018718;27;45408;-80
2021/07/26 00:09:56;;;;;;;;;18.67;16.33;;;;;;;;5033507;28;47464;-80
2021/07/26 00:12:21;;;;;;;;;16.00;14.00;;;;;;;;5011438;27;45500;-79
2021/07/26 00:14:47;;;;;;;;;18.75;16.50;;;;;;;;5031986;27;45527;-79
2021/07/26 00:17:12;;;;;;;;;17.67;13.00;;;;;;;;5024038;27;45690;-79
2021/07/26 00:19:37;;;;;;;;;18.00;15.00;;;;;;;;5021713;27;46307;-78
2021/07/26 00:22:02;;;;;;;;;22.67;18.33;;;;;;;;5032649;28;46010;-80
2021/07/26 00:24:28;;;;;;;;;18.25;15.75;;;;;;;;5020031;28;45439;-80
2021/07/26 00:26:53;;;;;;;;;20.00;17.75;;;;;;;;5029635;27;45338;-79
2021/07/26 00:29:18;;;;;;;;;18.25;14.50;;;;;;;;5022784;27;47024;-80
2021/07/26 00:31:44;;;;;;;;;22.00;17.25;;;;;;;;5014463;27;45495;-80
2021/07/26 00:34:14;;;;;;;;;19.00;18.00;;;;;;;;5022011;27;45693;-79
2021/07/26 00:36:41;;;;;;;;;25.00;19.25;;;;;;;;5015880;27;45513;-80
2021/07/26 00:39:08;;;;;;;;;18.75;15.75;;;;;;;;5012213;27;45484;-80
2021/07/26 00:41:34;;;;;;;;;23.25;17.75;;;;;;;;5025173;27;45846;-81
2021/07/26 00:43:59;;;;;;;;;17.00;16.00;;;;;;;;5028766;27;45478;-79
2021/07/26 00:46:24;;;;;;;;;21.33;17.67;;;;;;;;5024326;27;45428;-79
2021/07/26 00:48:50;;;;;;;;;21.25;17.50;;;;;;;;5030409;27;45978;-79
2021/07/26 00:51:15;;;;;;;;;16.25;14.25;;;;;;;;5036784;27;45437;-80
2021/07/26 00:53:40;;;;;;;;;17.00;14.00;;;;;;;;5036294;27;45602;-79
2021/07/26 00:56:06;;;;;;;;;20.25;16.25;;;;;;;;5033282;28;51241;-79
2021/07/26 00:58:32;;;;;;;;;19.75;15.50;;;;;;;;5037927;27;46501;-79
2021/07/26 01:00:57;;;;;;;;;15.75;15.25;;;;;;;;5026129;28;45502;-79
2021/07/26 01:03:23;;;;;;;;;16.25;13.75;;;;;;;;5033059;28;45387;-80
2021/07/26 01:05:48;;;;;;;;;15.33;15.33;;;;;;;;5042997;28;45464;-80
2021/07/26 01:08:14;;;;;;;;;20.00;16.25;;;;;;;;5038341;27;46036;-79
2021/07/26 01:10:39;;;;;;;;;17.00;15.25;;;;;;;;5037435;27;45761;-79
2021/07/26 01:13:04;;;;;;;;;17.33;16.33;;;;;;;;5034534;28;45345;-79
2021/07/26 01:15:29;;;;;;;;;17.33;16.00;;;;;;;;5036050;27;45531;-79
2021/07/26 01:18:14;;;;;;;;;16.50;12.75;;;;;;;;5038393;28;45576;-79
2021/07/26 01:20:40;;;;;;;;;16.75;15.00;;;;;;;;5047330;27;46183;-79
2021/07/26 01:23:05;;;;;;;;;17.00;14.00;;;;;;;;5048100;27;45488;-79
2021/07/26 01:25:34;;;;;;;;;20.00;15.67;;;;;;;;5041254;27;45527;-79
2021/07/26 01:27:59;;;;;;;;;16.50;14.00;;;;;;;;5038308;27;46410;-80
2021/07/26 01:30:24;;;;;;;;;20.33;16.67;;;;;;;;5038291;27;45403;-79
2021/07/26 01:32:49;;;;;;;;;19.67;15.67;;;;;;;;5021486;27;45560;-79
2021/07/26 01:35:14;;;;;;;;;17.67;13.67;;;;;;;;5039880;28;45467;-79
2021/07/26 01:37:40;;;;;;;;;16.67;14.33;;;;;;;;5037140;27;46235;-79
2021/07/26 01:40:05;;;;;;;;;17.00;13.33;;;;;;;;5037610;28;45280;-79
2021/07/26 01:42:30;;;;;;;;;15.50;13.50;;;;;;;;5035295;27;45591;-79
2021/07/26 01:44:58;;;;;;;;;17.33;16.33;;;;;;;;5040429;27;45531;-79
2021/07/26 01:47:26;;;;;;;;;18.50;15.75;;;;;;;;5038601;27;45315;-79
2021/07/26 01:49:58;;;;;;;;;14.25;13.00;;;;;;;;5039815;27;45520;-79
2021/07/26 01:52:24;;;;;;;;;16.75;14.00;;;;;;;;5037637;28;45575;-79
2021/07/26 01:54:49;;;;;;;;;13.75;13.25;;;;;;;;5037604;27;45804;-79
2021/07/26 01:57:16;;;;;;;;;15.50;13.00;;;;;;;;5016817;27;48259;-79
2021/07/26 01:59:41;;;;;;;;;18.25;14.75;;;;;;;;5020717;27;45888;-79
2021/07/26 02:02:07;;;;;;;;;18.00;13.25;;;;;;;;5033878;27;45434;-79
2021/07/26 02:04:32;;;;;;;;;14.67;13.33;;;;;;;;5033995;27;45523;-79
2021/07/26 02:06:57;;;;;;;;;14.67;12.67;;;;;;;;5033872;28;45563;-79
2021/07/26 02:09:22;;;;;;;;;12.50;12.00;;;;;;;;5045238;27;45918;-79
2021/07/26 02:11:48;;;;;;;;;16.00;14.33;;;;;;;;5041182;27;45624;-79
2021/07/26 02:14:13;;;;;;;;;19.50;15.75;;;;;;;;5028998;27;45556;-79
2021/07/26 02:16:39;;;;;;;;;17.33;13.67;;;;;;;;5033686;27;46080;-79
2021/07/26 02:19:04;;;;;;;;;20.25;15.00;;;;;;;;5033899;28;45394;-80
2021/07/26 02:21:30;;;;;;;;;20.25;14.75;;;;;;;;5031388;27;45683;-79
2021/07/26 02:23:55;;;;;;;;;13.75;12.75;;;;;;;;5034120;27;45436;-80
2021/07/26 02:26:20;;;;;;;;;14.33;14.00;;;;;;;;5034821;27;46150;-80
2021/07/26 02:28:46;;;;;;;;;21.33;16.33;;;;;;;;5018454;27;45632;-79
2021/07/26 02:31:11;;;;;;;;;13.67;13.67;;;;;;;;5034031;28;45349;-79
2021/07/26 02:33:36;;;;;;;;;14.33;11.67;;;;;;;;5046871;28;45408;-79
2021/07/26 02:36:01;;;;;;;;;13.00;12.33;;;;;;;;5031528;27;45559;-79
2021/07/26 02:38:26;;;;;;;;;12.33;12.33;;;;;;;;5037447;27;45528;-79
2021/07/26 02:40:52;;;;;;;;;15.50;13.25;;;;;;;;5032681;27;45461;-79
2021/07/26 02:43:17;;;;;;;;;15.33;12.33;;;;;;;;5018178;28;45495;-79
2021/07/26 02:45:43;;;;;;;;;17.33;15.67;;;;;;;;5032542;27;45509;-79
2021/07/26 02:48:10;;;;;;;;;13.25;11.75;;;;;;;;5030956;27;45615;-79
2021/07/26 02:50:35;;;;;;;;;14.75;13.75;;;;;;;;5036430;27;45520;-78
2021/07/26 02:53:00;;;;;;;;;20.33;13.67;;;;;;;;5033746;27;45511;-80
2021/07/26 02:55:27;;;;;;;;;21.67;14.33;;;;;;;;5033060;28;45597;-79
2021/07/26 02:57:53;;;;;;;;;17.25;15.75;;;;;;;;5033196;27;45454;-79
2021/07/26 03:00:19;;;;;;;;;19.00;16.25;;;;;;;;5028976;27;46225;-79
2021/07/26 03:02:44;;;;;;;;;14.50;13.50;;;;;;;;5043612;27;45361;-79
2021/07/26 03:05:10;;;;;;;;;22.33;17.33;;;;;;;;5032736;27;46449;-79
2021/07/26 03:07:35;;;;;;;;;16.75;13.50;;;;;;;;5033095;27;45502;-79
2021/07/26 03:10:00;;;;;;;;;14.00;13.00;;;;;;;;5030169;28;45587;-79
2021/07/26 03:12:25;;;;;;;;;23.00;15.00;;;;;;;;5028479;27;45388;-79
2021/07/26 03:14:51;;;;;;;;;20.50;13.25;;;;;;;;5017143;28;47313;-80
2021/07/26 03:17:16;;;;;;;;;22.25;14.50;;;;;;;;5033460;27;45805;-79
2021/07/26 03:19:41;;;;;;;;;15.75;13.25;;;;;;;;5032694;27;45463;-80
2021/07/26 03:22:25;;;;;;;;;15.00;13.75;;;;;;;;5033418;28;45452;-80
2021/07/26 03:24:51;;;;;;;;;17.75;15.00;;;;;;;;5032623;27;45539;-80
2021/07/26 03:27:16;;;;;;;;;16.00;13.67;;;;;;;;5025546;27;45305;-80
2021/07/26 03:29:41;;;;;;;;;19.00;17.00;;;;;;;;5031708;28;45336;-80
2021/07/26 03:32:06;;;;;;;;;16.67;15.33;;;;;;;;5027835;27;45544;-80
2021/07/26 03:34:31;;;;;;;;;13.00;13.00;;;;;;;;5020568;27;46327;-80
2021/07/26 03:36:57;;;;;;;;;14.00;13.00;;;;;;;;5026921;28;45518;-80
2021/07/26 03:39:22;;;;;;;;;15.67;14.00;;;;;;;;5011769;27;45414;-80
2021/07/26 03:41:47;;;;;;;;;16.00;15.00;;;;;;;;5035516;27;45414;-80
2021/07/26 03:44:12;;;;;;;;;19.00;14.33;;;;;;;;5017239;27;48484;-80
2021/07/26 03:46:37;;;;;;;;;19.00;15.00;;;;;;;;5032976;27;46015;-80
2021/07/26 03:49:03;;;;;;;;;23.33;15.00;;;;;;;;5032685;28;45512;-79
2021/07/26 03:51:28;;;;;;;;;13.33;12.33;;;;;;;;5029871;27;45419;-80
2021/07/26 03:53:53;;;;;;;;;19.67;13.33;;;;;;;;5015386;27;48093;-80
2021/07/26 03:56:18;;;;;;;;;18.00;13.67;;;;;;;;5026531;27;45451;-80
2021/07/26 03:58:43;;;;;;;;;14.33;12.67;;;;;;;;5028580;27;45385;-80
2021/07/26 04:01:09;;;;;;;;;16.33;15.33;;;;;;;;5032957;28;45318;-79
2021/07/26 04:03:34;;;;;;;;;17.33;14.33;;;;;;;;5030130;27;45477;-80
2021/07/26 04:06:07;;;;;;;;;12.75;12.75;;;;;;;;5032313;27;45361;-80
2021/07/26 04:08:36;;;;;;;;;13.50;13.25;;;;;;;;5023288;27;45625;-80
2021/07/26 04:11:38;;;;;;;;;17.75;14.75;;;;;;;;5014591;27;45325;-79
2021/07/26 04:13:58;;;;;;;;;16.25;13.25;;;;;;;;5029492;28;46863;-80
2021/07/26 04:16:23;;;;;;;;;15.75;13.75;;;;;;;;5032187;28;45441;-79
2021/07/26 04:18:50;;;;;;;;;15.00;14.00;;;;;;;;5031724;28;49024;-80
2021/07/26 04:21:16;;;;;;;;;10.00;9.25;;;;;;;;5022935;27;45550;-80
2021/07/26 04:23:42;;;;;;;;;14.00;12.50;;;;;;;;5038011;27;45614;-80
2021/07/26 04:26:07;;;;;;;;;18.00;13.00;;;;;;;;5032663;27;45454;-80
2021/07/26 04:28:32;;;;;;;;;12.25;11.50;;;;;;;;5032050;27;45487;-80
2021/07/26 04:30:57;;;;;;;;;15.33;11.67;;;;;;;;5033240;28;45471;-80
2021/07/26 04:33:22;;;;;;;;;17.00;12.67;;;;;;;;5022060;27;46081;-80
2021/07/26 04:35:48;;;;;;;;;14.67;12.00;;;;;;;;5035686;27;45304;-80
2021/07/26 04:38:13;;;;;;;;;14.67;11.00;;;;;;;;5032395;27;45502;-80
2021/07/26 04:40:38;;;;;;;;;16.33;12.67;;;;;;;;5030913;27;45443;-80
2021/07/26 04:43:03;;;;;;;;;13.75;10.75;;;;;;;;5031917;28;45543;-80
2021/07/26 04:45:29;;;;;;;;;12.00;10.33;;;;;;;;5027997;27;45426;-80
2021/07/26 04:47:54;;;;;;;;;14.25;11.25;;;;;;;;5034117;27;45424;-80
2021/07/26 04:50:19;;;;;;;;;14.33;12.67;;;;;;;;5032821;27;45405;-80
2021/07/26 04:52:44;;;;;;;;;12.25;10.50;;;;;;;;5031176;27;45376;-80
2021/07/26 04:55:10;;;;;;;;;11.75;10.75;;;;;;;;5047122;28;45549;-80
2021/07/26 04:57:35;;;;;;;;;11.50;11.00;;;;;;;;5030248;27;45527;-79
2021/07/26 05:00:01;;;;;;;;;15.75;13.50;;;;;;;;5041284;27;45907;-79
2021/07/26 05:02:26;;;;;;;;;13.00;11.00;;;;;;;;5014699;27;47431;-79
2021/07/26 05:04:51;;;;;;;;;11.33;8.00;;;;;;;;5031819;27;45511;-78
2021/07/26 05:07:17;;;;;;;;;12.25;10.00;;;;;;;;5031386;28;45394;-78
2021/07/26 05:09:42;;;;;;;;;14.50;10.50;;;;;;;;5030030;27;45651;-79
2021/07/26 05:12:12;;;;;;;;;14.00;11.25;;;;;;;;5029385;27;46186;-79
2021/07/26 05:14:37;;;;;;;;;8.50;7.00;;;;;;;;5034327;27;45817;-78
2021/07/26 05:17:03;;;;;;;;;10.50;9.25;;;;;;;;5031295;27;45554;-79
2021/07/26 05:19:28;;;;;;;;;11.50;9.50;;;;;;;;5046914;28;45624;-79
2021/07/26 05:21:53;;;;;;;;;11.67;8.00;;;;;;;;5030151;27;46356;-79
2021/07/26 05:24:18;;;;;;;;;10.33;9.00;;;;;;;;5028664;27;45492;-79
2021/07/26 05:26:44;;;;;;;;;13.00;8.67;;;;;;;;5088181;27;45348;-79
2021/07/26 05:29:09;;;;;;;;;12.67;9.00;;;;;;;;5017738;27;45596;-78
2021/07/26 05:31:34;;;;;;;;;13.33;8.33;;;;;;;;5031251;27;46770;-77
2021/07/26 05:33:59;;;;;;;;;7.67;7.67;;;;;;;;5031147;28;45374;-79
2021/07/26 05:36:24;;;;;;;;;11.33;8.00;;;;;;;;5012842;27;45574;-79
2021/07/26 05:38:50;;;;;;;;;8.25;8.25;;;;;;;;5018832;27;45637;-78
2021/07/26 05:41:16;;;;;;;;;10.50;9.00;;;;;;;;5034480;27;45538;-79
2021/07/26 05:43:41;;;;;;;;;9.50;8.75;;;;;;;;5033844;27;45477;-78
2021/07/26 05:46:06;;;;;;;;;10.67;9.33;;;;;;;;5033896;28;45456;-79
2021/07/26 05:48:32;;;;;;;;;8.33;7.67;;;;;;;;5034955;28;45597;-78
2021/07/26 05:50:57;;;;;;;;;8.67;6.33;;;;;;;;5034305;27;46154;-79
2021/07/26 05:53:22;;;;;;;;;10.67;7.00;;;;;;;;5035173;27;45475;-78
2021/07/26 05:55:47;;;;;;;;;8.00;7.67;;;;;;;;5032537;27;45891;-79
2021/07/26 05:58:12;;;;;;;;;8.67;8.00;;;;;;;;5035051;28;45459;-78
2021/07/26 06:00:42;;;;;;;;;12.00;9.00;;;;;;;;5031999;27;46374;-79
2021/07/26 06:03:08;;;;;;;;;7.25;7.00;;;;;;;;5032397;28;45464;-79
2021/07/26 06:05:33;;;;;;;;;12.50;9.00;;;;;;;;5035642;27;45504;-80
2021/07/26 06:07:58;;;;;;;;;10.00;8.00;;;;;;;;5018862;27;45440;-79
2021/07/26 06:10:23;;;;;;;;;7.33;7.33;;;;;;;;5029266;27;47091;-79
2021/07/26 06:12:51;;;;;;;;;11.00;8.00;;;;;;;;5031940;27;45478;-79
2021/07/26 06:15:16;;;;;;;;;10.75;9.00;;;;;;;;5031313;27;45451;-79
2021/07/26 06:17:42;;;;;;;;;7.00;7.00;;;;;;;;5052464;28;45547;-79
2021/07/26 06:20:07;;;;;;;;;9.33;7.33;;;;;;;;5033193;27;46166;-79
2021/07/26 06:22:33;;;;;;;;;12.75;8.75;;;;;;;;5033584;27;45371;-79
2021/07/26 06:24:58;;;;;;;;;9.75;8.25;;;;;;;;5033989;28;45570;-79
2021/07/26 06:27:23;;;;;;;;;10.00;8.67;;;;;;;;5011949;27;45498;-79
2021/07/26 06:29:52;;;;;;;;;14.33;8.00;;;;;;;;5033613;27;45503;-78
2021/07/26 06:32:17;;;;;;;;;10.25;8.75;;;;;;;;5017797;27;46203;-78
2021/07/26 06:34:43;;;;;;;;;12.33;8.00;;;;;;;;5056473;27;45491;-79
2021/07/26 06:37:08;;;;;;;;;9.67;9.00;;;;;;;;5031424;27;45363;-79
2021/07/26 06:39:33;;;;;;;;;11.33;10.67;;;;;;;;5030358;27;45322;-79
2021/07/26 06:42:00;;;;;;;;;14.00;9.00;;;;;;;;5056585;27;45641;-79
2021/07/26 06:44:25;;;;;;;;;10.00;8.75;;;;;;;;5046834;27;45337;-79
2021/07/26 06:46:50;;;;;;;;;11.00;10.33;;;;;;;;5030492;27;48800;-78
2021/07/26 06:49:15;;;;;;;;;10.67;9.33;;;;;;;;5045695;27;45955;-80
2021/07/26 06:51:41;;;;;;;;;13.00;10.00;;;;;;;;5047652;27;46100;-78
2021/07/26 06:54:06;;;;;;;;;12.33;8.67;;;;;;;;5035882;27;45409;-79
2021/07/26 06:56:31;;;;;;;;;13.00;11.67;;;;;;;;5047681;27;45495;-79
2021/07/26 06:58:56;;;;;;;;;11.00;8.67;;;;;;;;5044949;27;45607;-79
2021/07/26 07:01:22;;;;;;;;;13.33;10.00;;;;;;;;5031152;27;45586;-78
2021/07/26 07:03:47;;;;;;;;;13.00;8.67;;;;;;;;5030423;27;45489;-79
2021/07/26 07:06:13;;;;;;;;;16.00;11.67;;;;;;;;5029106;27;45598;-79
2021/07/26 07:08:38;;;;;;;;;13.00;9.75;;;;;;;;5033222;27;46260;-79
2021/07/26 07:11:11;;;;;;;;;15.00;11.00;;;;;;;;5027040;27;45602;-78
2021/07/26 07:13:37;;;;;;;;;14.25;12.00;;;;;;;;5023592;27;45876;-79
2021/07/26 07:16:07;;;;;;;;;14.50;12.25;;;;;;;;5019930;28;45544;-79
2021/07/26 07:18:32;;;;;;;;;14.00;13.25;;;;;;;;5018065;27;46181;-79
2021/07/26 07:20:57;;;;;;;;;13.33;13.00;;;;;;;;5042069;27;45509;-79
2021/07/26 07:23:22;;;;;;;;;18.00;14.00;;;;;;;;5034489;27;45496;-79
2021/07/26 07:25:48;;;;;;;;;17.25;14.00;;;;;;;;5037805;28;45795;-79
2021/07/26 07:28:13;;;;;;;;;21.00;16.33;;;;;;;;5035065;27;46270;-79
2021/07/26 07:30:38;;;;;;;;;23.75;16.75;;;;;;;;5031388;27;46239;-79
2021/07/26 07:33:03;;;;;;;;;23.00;18.67;;;;;;;;5036086;28;45553;-79
2021/07/26 07:35:29;;;;;;;;;30.00;18.33;;;;;;;;5024592;27;45341;-79
2021/07/26 07:37:54;;;;;;;;;19.50;17.75;;;;;;;;5035113;27;46369;-78
2021/07/26 07:40:22;;;;;;;;;23.75;16.75;;;;;;;;5034750;27;45584;-79
2021/07/26 07:42:48;;;;;;;;;27.25;18.25;;;;;;;;5033059;27;45639;-79
2021/07/26 07:45:13;;;;;;;;;20.00;18.33;;;;;;;;5029176;27;45271;-79
2021/07/26 07:47:40;;;;;;;;;22.75;18.75;;;;;;;;5034877;27;45405;-78
2021/07/26 07:50:05;;;;;;;;;23.75;20.50;;;;;;;;5033475;27;45818;-79
2021/07/26 07:52:31;;;;;;;;;13.00;12.50;;;;;;;;5032444;27;45360;-79
2021/07/26 07:54:56;;;;;;;;;26.00;18.50;;;;;;;;5032678;28;45796;-78
2021/07/26 07:57:22;;;;;;;;;29.50;20.50;;;;;;;;5032654;27;46281;-79
2021/07/26 07:59:48;;;;;;;;;21.25;19.75;;;;;;;;5024433;27;45562;-79
2021/07/26 08:02:13;;;;;;;;;26.33;19.33;;;;;;;;5035159;27;45347;-78
2021/07/26 08:04:40;;;;;;;;;24.00;20.00;;;;;;;;5027094;27;45686;-79
2021/07/26 08:07:05;;;;;;;;;23.75;18.25;;;;;;;;5032096;28;45570;-78
2021/07/26 08:09:31;;;;;;;;;26.25;18.50;;;;;;;;5031633;27;45528;-79
2021/07/26 08:11:56;;;;;;;;;20.75;16.25;;;;;;;;5031678;27;45492;-78
2021/07/26 08:14:21;;;;;;;;;20.67;16.33;;;;;;;;5030037;27;45495;-79
2021/07/26 08:16:46;;;;;;;;;19.00;17.00;;;;;;;;5031965;27;46128;-79
2021/07/26 08:19:11;;;;;;;;;19.67;16.00;;;;;;;;5032245;28;45468;-79
2021/07/26 08:21:37;;;;;;;;;18.00;13.67;;;;;;;;5013006;27;45309;-79
2021/07/26 08:24:03;;;;;;;;;14.00;13.75;;;;;;;;5011614;27;45549;-79
2021/07/26 08:26:28;;;;;;;;;17.00;14.25;;;;;;;;5018568;27;45233;-79
2021/07/26 08:28:53;;;;;;;;;19.50;14.50;;;;;;;;5019188;27;45386;-78
2021/07/26 08:31:18;;;;;;;;;16.25;13.50;;;;;;;;5019029;28;45463;-79
2021/07/26 08:33:44;;;;;;;;;12.00;11.33;;;;;;;;5023570;27;45472;-79
2021/07/26 08:36:09;;;;;;;;;20.00;13.67;;;;;;;;5017167;27;46051;-79
2021/07/26 08:38:34;;;;;;;;;14.75;12.25;;;;;;;;5018819;27;45326;-78
2021/07/26 08:41:00;;;;;;;;;17.00;11.00;;;;;;;;5022672;27;45386;-79
2021/07/26 08:43:27;;;;;;;;;11.75;11.00;;;;;;;;5032221;28;45289;-79
2021/07/26 08:45:52;;;;;;;;;17.50;14.50;;;;;;;;5030736;27;46292;-79
2021/07/26 08:48:18;;;;;;;;;15.50;12.25;;;;;;;;5027852;27;45576;-79
2021/07/26 08:50:44;;;;;;;;;15.25;10.50;;;;;;;;5018169;27;45397;-78
2021/07/26 08:53:09;;;;;;;;;17.50;15.75;;;;;;;;5024157;27;45363;-79
2021/07/26 08:55:35;;;;;;;;;18.00;16.00;;;;;;;;5024526;27;45563;-79
2021/07/26 08:58:01;;;;;;;;;16.25;14.75;;;;;;;;5032031;27;45505;-79
2021/07/26 09:00:27;;;;;;;;;14.75;13.25;;;;;;;;5028073;27;45359;-79
2021/07/26 09:02:52;;;;;;;;;17.50;14.75;;;;;;;;5033167;27;45440;-79
2021/07/26 09:05:18;;;;;;;;;16.00;12.00;;;;;;;;5030112;27;46478;-80
2021/07/26 09:07:44;;;;;;;;;13.75;13.75;;;;;;;;5020735;27;45512;-79
2021/07/26 09:10:12;;;;;;;;;16.00;14.75;;;;;;;;5021699;28;45592;-79
2021/07/26 09:12:39;;;;;;;;;18.25;13.75;;;;;;;;5017580;27;45500;-79
2021/07/26 09:15:04;;;;;;;;;17.50;15.00;;;;;;;;5036192;27;45522;-79
2021/07/26 09:17:37;;;;;;;;;16.25;13.25;;;;;;;;5020256;27;45800;-79
2021/07/26 09:20:03;;;;;;;;;23.25;16.75;;;;;;;;5017540;27;45465;-79
2021/07/26 09:22:28;;;;;;;;;21.75;13.75;;;;;;;;5021811;27;45541;-78
2021/07/26 09:25:13;;;;;;;;;22.33;16.33;;;;;;;;5040177;27;48121;-79
2021/07/26 09:27:38;;;;;;;;;24.75;16.50;;;;;;;;5024499;27;45670;-79
2021/07/26 09:30:13;;;;;;;;;25.00;17.00;;;;;;;;5015971;27;45494;-79
2021/07/26 09:32:38;;;;;;;;;18.25;14.75;;;;;;;;5020975;27;45467;-79
2021/07/26 09:35:06;;;;;;;;;16.33;14.33;;;;;;;;5017940;28;46060;-79
2021/07/26 09:37:31;;;;;;;;;18.00;14.25;;;;;;;;5012767;27;45454;-80
2021/07/26 09:40:16;;;;;;;;;20.00;14.33;;;;;;;;5010750;27;45519;-79
2021/07/26 09:42:41;;;;;;;;;18.75;15.75;;;;;;;;5030794;27;45465;-78
2021/07/26 09:45:20;;;;;;;;;18.33;15.00;;;;;;;;5028103;27;45443;-79
2021/07/26 09:48:03;;;;;;;;;16.75;15.25;;;;;;;;5034236;27;45839;-80
2021/07/26 09:50:38;;;;;;;;;21.75;17.75;;;;;;;;5044680;27;45296;-79
2021/07/26 09:53:07;;;;;;;;;21.50;16.50;;;;;;;;5029362;27;45659;-79
2021/07/26 09:55:33;;;;;;;;;23.25;18.00;;;;;;;;5012400;27;47365;-79
2021/07/26 09:58:02;;;;;;;;;17.25;16.00;;;;;;;;5027040;28;45426;-78
2021/07/26 10:00:28;;;;;;;;;20.25;19.50;;;;;;;;5031039;27;45569;-78
2021/07/26 10:02:54;;;;;;;;;21.75;16.75;;;;;;;;5035352;27;45434;-79
2021/07/26 10:05:20;;;;;;;;;24.75;16.25;;;;;;;;5034751;27;45487;-79
2021/07/26 10:07:45;;;;;;;;;20.00;16.75;;;;;;;;5033556;27;45456;-79
2021/07/26 10:10:13;;;;;;;;;22.00;18.33;;;;;;;;5028654;28;45621;-79
2021/07/26 10:12:41;;;;;;;;;19.75;15.75;;;;;;;;5028060;27;45484;-79
2021/07/26 10:15:06;;;;;;;;;19.50;15.00;;;;;;;;5020431;27;45941;-79
2021/07/26 10:17:32;;;;;;;;;23.00;17.00;;;;;;;;5029135;27;45515;-80
2021/07/26 10:19:57;;;;;;;;;21.25;17.50;;;;;;;;5030372;27;45465;-79
2021/07/26 10:22:25;;;;;;;;;17.75;16.75;;;;;;;;5033205;28;48586;-79
2021/07/26 10:24:54;;;;;;;;;17.75;14.00;;;;;;;;5032447;27;46153;-79
2021/07/26 10:27:21;;;;;;;;;15.00;13.00;;;;;;;;5024674;27;45609;-79
2021/07/26 10:29:50;;;;;;;;;16.50;15.25;;;;;;;;5037048;27;45402;-79
2021/07/26 10:32:31;;;;;;;;;10.50;10.50;;;;;;;;5033709;27;46380;-79
2021/07/26 10:34:56;;;;;;;;;16.50;11.75;;;;;;;;5040397;27;46486;-79
2021/07/26 10:37:37;;;;;;;;;16.00;13.75;;;;;;;;5028160;27;45415;-79
2021/07/26 10:40:21;;;;;;;;;16.00;13.50;;;;;;;;5046163;27;45426;-77
2021/07/26 10:42:46;;;;;;;;;13.25;12.25;;;;;;;;5022782;27;45503;-79
2021/07/26 10:45:30;;;;;;;;;14.00;12.75;;;;;;;;5048428;27;47027;-78
2021/07/26 10:48:14;;;;;;;;;13.75;13.75;;;;;;;;5030568;27;45891;-79
2021/07/26 10:50:39;;;;;;;;;17.25;13.00;;;;;;;;5015474;27;45611;-79
2021/07/26 10:53:05;;;;;;;;;12.00;12.00;;;;;;;;5033983;27;45427;-79
2021/07/26 10:55:49;;;;;;;;;16.67;13.67;;;;;;;;5033515;27;45353;-78
2021/07/26 10:58:34;;;;;;;;;16.00;14.00;;;;;;;;5030725;27;45485;-79
2021/07/26 11:01:18;;;;;;;;;9.75;9.75;;;;;;;;5029512;28;45515;-79
2021/07/26 11:03:43;;;;;;;;;11.00;10.00;;;;;;;;5024531;27;45307;-79
2021/07/26 11:06:08;;;;;;;;;10.00;9.00;;;;;;;;5030195;27;46360;-79
2021/07/26 11:08:33;;;;;;;;;10.00;8.00;;;;;;;;5020063;27;45507;-79
2021/07/26 11:10:59;;;;;;;;;8.00;8.00;;;;;;;;5017950;27;46473;-79
2021/07/26 11:13:43;;;;;;;;;10.25;9.25;;;;;;;;5020856;28;45718;-79
2021/07/26 11:16:08;;;;;;;;;9.00;9.00;;;;;;;;5008197;28;45736;-78
2021/07/26 11:18:40;;;;;;;;;8.67;8.67;;;;;;;;5024192;27;45844;-79
2021/07/26 11:21:05;;;;;;;;;7.75;7.75;;;;;;;;5021842;27;45579;-78
2021/07/26 11:23:40;;;;;;;;;6.33;6.33;;;;;;;;5009521;27;45503;-79
2021/07/26 11:26:13;;;;;;;;;8.00;6.75;;;;;;;;5011450;27;45950;-79
2021/07/26 11:28:38;;;;;;;;;4.75;4.75;;;;;;;;4999010;27;46012;-79
2021/07/26 11:31:04;;;;;;;;;8.50;5.00;;;;;;;;5011588;28;45343;-79
2021/07/26 11:33:30;;;;;;;;;8.50;7.25;;;;;;;;5011218;27;48836;-80
2021/07/26 11:35:55;;;;;;;;;8.00;8.00;;;;;;;;5056299;27;45672;-80
2021/07/26 11:38:21;;;;;;;;;8.50;8.50;;;;;;;;5013089;27;45483;-79
2021/07/26 11:40:46;;;;;;;;;7.50;6.25;;;;;;;;5008767;27;45914;-79
2021/07/26 11:43:11;;;;;;;;;6.67;6.67;;;;;;;;5020979;28;45335;-79
2021/07/26 11:45:36;;;;;;;;;11.33;11.00;;;;;;;;5020070;27;45618;-80
2021/07/26 11:48:07;;;;;;;;;6.50;6.50;;;;;;;;5000764;27;46817;-80
2021/07/26 11:50:37;;;;;;;;;6.25;6.00;;;;;;;;5042195;27;45439;-79
2021/07/26 11:53:02;;;;;;;;;11.75;10.50;;;;;;;;5022272;27;45480;-79
2021/07/26 11:55:28;;;;;;;;;10.00;10.00;;;;;;;;5014598;28;45653;-79
2021/07/26 11:57:54;;;;;;;;;10.75;8.00;;;;;;;;5019460;27;45441;-79
2021/07/26 12:00:26;;;;;;;;;10.75;10.25;;;;;;;;5027886;27;45470;-79
2021/07/26 12:02:52;;;;;;;;;9.25;9.25;;;;;;;;5035181;27;45441;-79
2021/07/26 12:05:18;;;;;;;;;12.50;11.00;;;;;;;;5019063;27;46309;-79
2021/07/26 12:07:44;;;;;;;;;8.50;8.50;;;;;;;;5011451;27;45322;-79
2021/07/26 12:10:11;;;;;;;;;9.50;9.50;;;;;;;;5032484;28;45319;-79
2021/07/26 12:12:37;;;;;;;;;10.75;9.50;;;;;;;;5030272;27;45424;-79
2021/07/26 12:15:21;;;;;;;;;11.25;10.50;;;;;;;;5031366;27;46491;-79
2021/07/26 12:18:00;;;;;;;;;12.00;9.75;;;;;;;;5019454;27;45473;-79
2021/07/26 12:20:25;;;;;;;;;11.50;11.00;;;;;;;;5035079;27;45354;-79
2021/07/26 12:22:50;;;;;;;;;17.33;12.33;;;;;;;;5026326;27;45478;-80
2021/07/26 12:25:16;;;;;;;;;11.67;11.00;;;;;;;;5031898;28;46167;-79
2021/07/26 12:27:41;;;;;;;;;11.75;9.25;;;;;;;;5030595;27;45726;-77
2021/07/26 12:30:10;;;;;;;;;12.75;12.25;;;;;;;;5020050;27;45816;-80
2021/07/26 12:32:48;;;;;;;;;13.25;11.75;;;;;;;;5033222;28;45504;-78
2021/07/26 12:35:17;;;;;;;;;11.25;10.00;;;;;;;;5038237;28;45453;-79
2021/07/26 12:37:59;;;;;;;;;13.75;9.75;;;;;;;;5031693;28;45671;-79
2021/07/26 12:40:25;;;;;;;;;7.75;7.25;;;;;;;;5035447;27;45548;-80
2021/07/26 12:43:04;;;;;;;;;9.00;9.00;;;;;;;;5040806;28;45498;-79
2021/07/26 12:45:29;;;;;;;;;10.25;9.00;;;;;;;;5027124;28;46391;-79
2021/07/26 12:47:54;;;;;;;;;7.25;7.25;;;;;;;;5032598;27;45255;-80
2021/07/26 12:50:20;;;;;;;;;7.67;5.67;;;;;;;;5014668;28;45528;-79
2021/07/26 12:52:45;;;;;;;;;6.75;6.50;;;;;;;;5032055;28;45403;-80
2021/07/26 12:55:14;;;;;;;;;9.75;6.75;;;;;;;;5022817;28;45629;-80
2021/07/26 12:57:40;;;;;;;;;8.75;6.00;;;;;;;;5029672;27;45604;-80
2021/07/26 13:00:05;;;;;;;;;8.67;7.67;;;;;;;;5012560;27;45484;-80
2021/07/26 13:02:32;;;;;;;;;7.75;7.75;;;;;;;;5032893;27;45330;-79
2021/07/26 13:04:57;;;;;;;;;7.25;7.25;;;;;;;;5023929;27;46354;-79
2021/07/26 13:07:22;;;;;;;;;14.33;11.67;;;;;;;;5026699;27;45588;-80
2021/07/26 13:09:48;;;;;;;;;11.67;10.67;;;;;;;;5032945;28;45408;-80
2021/07/26 13:12:13;;;;;;;;;12.75;12.75;;;;;;;;5010569;28;45442;-80
2021/07/26 13:14:39;;;;;;;;;13.25;13.25;;;;;;;;5016797;27;46624;-80
2021/07/26 13:17:04;;;;;;;;;17.67;13.67;;;;;;;;5032784;27;45402;-80
2021/07/26 13:19:29;;;;;;;;;14.67;14.00;;;;;;;;5024813;28;45464;-80
2021/07/26 13:21:54;;;;;;;;;13.50;11.25;;;;;;;;5014669;27;45503;-81
2021/07/26 13:24:19;;;;;;;;;15.00;13.67;;;;;;;;5003607;27;46827;-79
2021/07/26 13:26:45;;;;;;;;;13.00;12.25;;;;;;;;5011517;27;45392;-80
2021/07/26 13:29:10;;;;;;;;;13.33;12.00;;;;;;;;5004175;27;45469;-79
2021/07/26 13:31:38;;;;;;;;;15.50;13.75;;;;;;;;5023285;28;45833;-80
2021/07/26 13:34:05;;;;;;;;;14.00;14.00;;;;;;;;5024908;28;46035;-79
2021/07/26 13:36:30;;;;;;;;;15.50;13.00;;;;;;;;5027533;27;45527;-79
2021/07/26 13:38:55;;;;;;;;;15.00;15.00;;;;;;;;5014054;27;45500;-80
2021/07/26 13:41:21;;;;;;;;;17.00;14.25;;;;;;;;5041632;27;45558;-79
2021/07/26 13:43:46;;;;;;;;;14.00;14.00;;;;;;;;5031364;28;45529;-80
2021/07/26 13:46:12;;;;;;;;;16.00;13.00;;;;;;;;5030508;28;45416;-80
2021/07/26 13:48:37;;;;;;;;;13.00;12.75;;;;;;;;5028600;27;45367;-80
2021/07/26 13:51:03;;;;;;;;;14.67;14.67;;;;;;;;5030895;27;45553;-80
2021/07/26 13:53:28;;;;;;;;;11.25;11.25;;;;;;;;5031804;27;46158;-79
2021/07/26 13:55:53;;;;;;;;;12.67;12.67;;;;;;;;5029408;27;45244;-79
2021/07/26 13:58:19;;;;;;;;;11.67;11.67;;;;;;;;5026863;28;45461;-80
2021/07/26 14:00:45;;;;;;;;;11.25;11.25;;;;;;;;5033044;27;45459;-79
2021/07/26 14:03:10;;;;;;;;;14.75;14.75;;;;;;;;5031166;27;46178;-79
2021/07/26 14:05:35;;;;;;;;;14.25;11.25;;;;;;;;5035792;27;45369;-78
2021/07/26 14:08:01;;;;;;;;;16.00;13.33;;;;;;;;5033694;27;45444;-79
2021/07/26 14:10:27;;;;;;;;;12.75;11.75;;;;;;;;5033430;28;45513;-80
2021/07/26 14:12:52;;;;;;;;;12.33;12.33;;;;;;;;5033443;27;45510;-79
2021/07/26 14:15:18;;;;;;;;;14.67;12.67;;;;;;;;5029539;27;45507;-80
2021/07/26 14:17:43;;;;;;;;;11.00;10.00;;;;;;;;5036821;27;45408;-79